Time;durP1;ratioP1;P1;durP2;ratioP2;P2;SDS_P1;SDS_P2;PMS_P1;PMS_P2;Temp;Humidity;BMP_temperature;BMP_pressure;BME280_temperature;BME280_humidity;BME280_pressure;Samples;Min_cycle;Max_cycle;Signal;HPM_P1;HPM_P2
2022/09/01 00:00:17;;;;;;;2.80;1.60;;;23.70;60.00;;;;;;220150;1267;22554;-49
2022/09/01 00:05:36;;;;;;;3.20;1.80;;;23.70;60.00;;;;;;220096;1267;25979;-55
2022/09/01 00:10:40;;;;;;;3.10;1.80;;;23.70;59.60;;;;;;220128;1267;22531;-52
2022/09/01 00:15:44;;;;;;;3.80;1.90;;;23.60;59.90;;;;;;220395;1267;22996;-51
2022/09/01 00:20:48;;;;;;;3.20;1.60;;;23.60;59.90;;;;;;220245;1267;22544;-56
2022/09/01 00:25:53;;;;;;;3.40;2.10;;;23.60;59.90;;;;;;219978;1267;22521;-54
2022/09/01 00:30:57;;;;;;;2.80;1.50;;;23.60;60.00;;;;;;220096;1268;22528;-56
2022/09/01 00:36:04;;;;;;;3.70;1.80;;;23.60;60.00;;;;;;220095;1267;24228;-51
2022/09/01 00:41:08;;;;;;;3.30;1.80;;;23.60;60.00;;;;;;220263;1269;24226;-55
2022/09/01 00:46:16;;;;;;;3.20;1.80;;;23.60;60.00;;;;;;220087;1267;25563;-52
2022/09/01 00:51:23;;;;;;;4.40;1.80;;;23.60;60.00;;;;;;220251;1267;24021;-51
2022/09/01 00:56:29;;;;;;;2.30;1.70;;;23.60;60.10;;;;;;220018;1267;24199;-54
2022/09/01 01:01:35;;;;;;;3.10;1.80;;;23.60;60.00;;;;;;220449;1270;25957;-51
2022/09/01 01:07:03;;;;;;;2.80;1.70;;;23.60;60.30;;;;;;220109;1267;22535;-51
2022/09/01 01:12:10;;;;;;;3.20;1.50;;;23.60;60.00;;;;;;220146;1267;22525;-52
2022/09/01 01:17:14;;;;;;;3.50;1.80;;;23.50;59.70;;;;;;220105;1267;22553;-51
2022/09/01 01:27:48;;;;;;;2.20;1.30;;;23.50;60.00;;;;;;220041;1267;24539;-53
2022/09/01 01:32:51;;;;;;;3.00;1.90;;;23.50;59.80;;;;;;220220;1267;24354;-54
2022/09/01 01:37:57;;;;;;;3.40;1.80;;;23.50;59.80;;;;;;220467;1267;25249;-51
2022/09/01 01:43:01;;;;;;;3.30;1.90;;;23.50;60.00;;;;;;220092;1267;22527;-52
2022/09/01 01:48:07;;;;;;;3.00;1.60;;;23.50;60.00;;;;;;220728;1267;22593;-50
2022/09/01 01:53:16;;;;;;;2.40;1.60;;;23.50;60.60;;;;;;220281;1267;22566;-55
2022/09/01 01:58:23;;;;;;;2.70;1.70;;;23.50;59.90;;;;;;220065;1267;22842;-60
2022/09/01 02:03:37;;;;;;;3.30;1.70;;;23.50;59.90;;;;;;220081;1267;24289;-55
2022/09/01 02:08:42;;;;;;;2.70;1.60;;;23.50;59.80;;;;;;220167;1267;24676;-57
2022/09/01 02:13:48;;;;;;;3.90;1.80;;;23.50;59.80;;;;;;220256;1270;22551;-52
2022/09/01 02:18:52;;;;;;;2.50;1.60;;;23.50;59.80;;;;;;220127;1267;25239;-53
2022/09/01 02:24:01;;;;;;;2.70;1.70;;;23.50;59.80;;;;;;220402;1267;23977;-55
2022/09/01 02:29:16;;;;;;;2.60;1.60;;;23.50;60.10;;;;;;220130;1267;22617;-52
2022/09/01 02:34:22;;;;;;;5.00;1.80;;;23.40;59.90;;;;;;220075;1267;25243;-51
2022/09/01 02:39:31;;;;;;;3.20;1.70;;;23.40;59.80;;;;;;220145;1267;22540;-52
2022/09/01 02:44:36;;;;;;;2.70;1.60;;;23.40;59.80;;;;;;220161;1270;24223;-51
2022/09/01 02:49:44;;;;;;;3.20;2.00;;;23.40;59.80;;;;;;219984;1267;22595;-52
2022/09/01 02:54:49;;;;;;;2.50;1.80;;;23.40;60.00;;;;;;220148;1268;25309;-54
2022/09/01 02:59:54;;;;;;;3.10;1.90;;;23.40;59.80;;;;;;219902;1268;24199;-56
2022/09/01 03:05:01;;;;;;;2.40;1.40;;;23.40;59.80;;;;;;219885;1270;22566;-51
2022/09/01 03:10:08;;;;;;;2.50;1.60;;;23.40;59.90;;;;;;220084;1268;22672;-51
2022/09/01 03:15:12;;;;;;;3.00;1.70;;;23.40;59.80;;;;;;220015;1267;22892;-54
2022/09/01 03:20:18;;;;;;;2.60;1.60;;;23.40;60.00;;;;;;220027;1267;22610;-51
2022/09/01 03:25:23;;;;;;;6.90;1.90;;;23.40;59.90;;;;;;220098;1268;24161;-52
2022/09/01 03:30:29;;;;;;;2.70;1.50;;;23.30;59.80;;;;;;220133;1270;22560;-53
2022/09/01 03:35:33;;;;;;;3.20;2.00;;;23.30;59.80;;;;;;220007;1268;23149;-53
2022/09/01 03:40:51;;;;;;;3.40;1.80;;;23.30;59.90;;;;;;220046;1270;22674;-54
2022/09/01 03:45:59;;;;;;;2.90;1.60;;;23.30;60.00;;;;;;220238;1267;25280;-51
2022/09/01 03:51:03;;;;;;;2.60;1.60;;;23.30;60.50;;;;;;220321;1267;22544;-53
2022/09/01 03:56:07;;;;;;;2.70;1.40;;;23.30;59.90;;;;;;219980;1267;25271;-51
2022/09/01 04:01:12;;;;;;;2.10;1.40;;;23.30;60.00;;;;;;220386;1268;24224;-54
2022/09/01 04:06:19;;;;;;;2.40;1.60;;;23.30;60.00;;;;;;219901;1267;25196;-54
2022/09/01 04:11:24;;;;;;;2.50;1.50;;;23.30;59.90;;;;;;220364;1267;25195;-51
2022/09/01 04:21:56;;;;;;;2.30;1.30;;;23.30;59.90;;;;;;220192;1267;24221;-53
2022/09/01 04:27:02;;;;;;;3.60;1.40;;;23.30;59.80;;;;;;220186;1267;22532;-51
2022/09/01 04:32:11;;;;;;;2.80;1.70;;;23.30;59.90;;;;;;220057;1267;22544;-50
2022/09/01 04:37:24;;;;;;;3.20;1.60;;;23.30;59.80;;;;;;220253;1267;24464;-53
2022/09/01 04:42:35;;;;;;;;;;;23.20;59.90;;;;;;220201;1267;24430;-55
2022/09/01 04:47:41;;;;;;;2.40;1.40;;;23.20;59.80;;;;;;220047;1267;23041;-53
2022/09/01 04:52:54;;;;;;;3.30;1.70;;;23.20;59.90;;;;;;220232;1267;24225;-53
2022/09/01 04:58:04;;;;;;;2.50;1.60;;;23.20;59.90;;;;;;219028;1270;22710;-54
2022/09/01 05:03:15;;;;;;;3.10;1.80;;;23.20;59.90;;;;;;220276;1267;24673;-52
2022/09/01 05:08:40;;;;;;;2.70;1.60;;;23.20;59.90;;;;;;219981;1269;24239;-53
2022/09/01 05:13:56;;;;;;;2.40;1.60;;;23.20;59.90;;;;;;220099;1267;22700;-52
2022/09/01 05:19:01;;;;;;;4.00;1.80;;;23.20;59.80;;;;;;220087;1267;22863;-50
2022/09/01 05:24:09;;;;;;;2.60;1.40;;;23.20;59.80;;;;;;220063;1267;22743;-52
2022/09/01 05:29:16;;;;;;;3.00;1.70;;;23.20;59.80;;;;;;220004;1267;22530;-55
2022/09/01 05:34:26;;;;;;;3.10;1.60;;;23.20;59.80;;;;;;220056;1267;22627;-55
2022/09/01 05:39:31;;;;;;;2.90;1.80;;;23.20;59.80;;;;;;220013;1270;22592;-52
2022/09/01 05:44:38;;;;;;;3.40;1.90;;;23.20;59.90;;;;;;220157;1267;22534;-51
2022/09/01 05:49:41;;;;;;;3.20;1.60;;;23.20;59.70;;;;;;220162;1267;25474;-54
2022/09/01 05:54:46;;;;;;;2.60;1.60;;;23.20;59.60;;;;;;220159;1267;25239;-51
2022/09/01 05:59:53;;;;;;;3.30;1.40;;;23.20;59.60;;;;;;220250;1267;22553;-52
2022/09/01 06:05:02;;;;;;;2.10;1.40;;;23.20;59.60;;;;;;219968;1267;23032;-54
2022/09/01 06:10:09;;;;;;;2.70;1.50;;;23.20;59.80;;;;;;220811;1266;22727;-53
2022/09/01 06:15:19;;;;;;;2.70;1.60;;;23.30;59.80;;;;;;220019;1270;22617;-53
2022/09/01 06:20:29;;;;;;;3.10;1.50;;;23.30;60.00;;;;;;220241;1267;22614;-53
2022/09/01 06:25:38;;;;;;;4.60;1.80;;;23.30;59.80;;;;;;220288;1267;22834;-55
2022/09/01 06:30:46;;;;;;;2.40;1.60;;;23.30;59.80;;;;;;220262;1267;24255;-53
2022/09/01 06:35:54;;;;;;;3.20;1.60;;;23.30;60.10;;;;;;220324;1270;22692;-54
2022/09/01 06:41:03;;;;;;;3.30;1.70;;;23.30;59.70;;;;;;220033;1267;24747;-54
2022/09/01 06:46:15;;;;;;;2.80;1.40;;;23.30;59.60;;;;;;220016;1267;22627;-54
2022/09/01 06:51:21;;;;;;;2.30;1.50;;;23.40;59.60;;;;;;220498;1267;22545;-54
2022/09/01 06:56:30;;;;;;;2.40;1.60;;;23.40;59.60;;;;;;220259;1267;25238;-55
2022/09/01 07:02:02;;;;;;;3.50;1.80;;;23.40;59.60;;;;;;219959;1267;25353;-55
2022/09/01 07:07:33;;;;;;;2.40;1.40;;;23.40;59.60;;;;;;220155;1267;22538;-58
2022/09/01 07:13:00;;;;;;;2.50;1.50;;;23.50;59.70;;;;;;220659;1267;22530;-54
2022/09/01 07:18:09;;;;;;;2.40;1.50;;;23.40;59.50;;;;;;220254;1267;25248;-57
2022/09/01 07:23:15;;;;;;;2.20;1.40;;;23.40;59.50;;;;;;220365;1268;22550;-55
2022/09/01 07:28:22;;;;;;;2.00;1.40;;;23.50;59.50;;;;;;220108;1267;24196;-53
2022/09/01 07:33:29;;;;;;;2.30;1.40;;;23.60;59.40;;;;;;219938;1270;23924;-50
2022/09/01 07:38:53;;;;;;;2.50;1.40;;;23.50;59.80;;;;;;220258;1270;22549;-51
2022/09/01 07:44:25;;;;;;;3.10;1.60;;;23.50;59.30;;;;;;220133;1267;22587;-52
2022/09/01 07:49:49;;;;;;;3.20;1.40;;;23.60;59.40;;;;;;220217;1267;25298;-53
2022/09/01 07:55:15;;;;;;;2.80;1.60;;;23.60;59.00;;;;;;220328;1267;22544;-56
2022/09/01 08:00:20;;;;;;;2.50;1.20;;;23.60;59.70;;;;;;220097;1270;23972;-54
2022/09/01 08:05:27;;;;;;;2.20;1.20;;;23.60;60.20;;;;;;220053;1270;22529;-54
2022/09/01 08:10:32;;;;;;;3.30;1.60;;;23.70;60.00;;;;;;220046;1271;22623;-51
2022/09/01 08:15:40;;;;;;;2.50;1.50;;;23.60;59.70;;;;;;220058;1267;24219;-52
2022/09/01 08:21:11;;;;;;;2.50;1.50;;;23.70;59.70;;;;;;220823;1267;22699;-56
2022/09/01 08:26:35;;;;;;;2.60;1.50;;;23.70;59.80;;;;;;220403;1267;24359;-53
2022/09/01 08:31:39;;;;;;;2.20;1.20;;;23.80;59.60;;;;;;220458;1270;22576;-54
2022/09/01 08:36:48;;;;;;;2.60;1.30;;;23.80;59.60;;;;;;220334;1268;22530;-53
2022/09/01 08:41:52;;;;;;;2.50;1.40;;;23.80;59.60;;;;;;220328;1270;23034;-57
2022/09/01 08:47:09;;;;;;;1.90;1.40;;;23.80;59.60;;;;;;220501;1267;22540;-53
2022/09/01 08:52:32;;;;;;;3.70;1.50;;;23.90;59.60;;;;;;220784;1267;22590;-53
2022/09/01 08:57:41;;;;;;;2.00;1.30;;;23.90;59.50;;;;;;220154;1268;22538;-52
2022/09/01 09:03:25;;;;;;;2.20;1.40;;;23.90;59.20;;;;;;219897;1268;24072;-49
2022/09/01 09:09:02;;;;;;;2.10;1.30;;;24.00;59.50;;;;;;220507;1271;24326;-54
2022/09/01 09:14:15;;;;;;;2.50;1.60;;;24.10;59.10;;;;;;220158;1267;24418;-52
2022/09/01 09:19:28;;;;;;;2.30;1.30;;;24.10;59.10;;;;;;220009;1272;25437;-52
2022/09/01 09:24:59;;;;;;;2.70;1.50;;;24.10;58.70;;;;;;220008;1267;25241;-53
2022/09/01 09:30:12;;;;;;;2.10;1.30;;;24.10;59.10;;;;;;220402;1267;22556;-55
2022/09/01 09:35:35;;;;;;;2.20;1.30;;;24.10;59.30;;;;;;220402;1270;23166;-54
2022/09/01 09:40:54;;;;;;;4.20;1.70;;;24.10;59.30;;;;;;220322;1268;22529;-53
2022/09/01 09:46:33;;;;;;;2.70;1.50;;;24.20;59.40;;;;;;220730;1271;22524;-58
2022/09/01 09:51:40;;;;;;;2.20;1.40;;;24.20;59.20;;;;;;220157;1268;22532;-54
2022/09/01 09:56:46;;;;;;;2.20;1.30;;;24.30;59.10;;;;;;220253;1270;22537;-53
2022/09/01 10:01:50;;;;;;;2.00;1.40;;;24.30;59.10;;;;;;220213;1267;22557;-53
2022/09/01 10:06:54;;;;;;;1.70;1.20;;;24.40;59.00;;;;;;220434;1271;25385;-54
2022/09/01 10:12:00;;;;;;;3.00;1.50;;;24.50;58.90;;;;;;220211;1271;23977;-53
2022/09/01 10:17:12;;;;;;;2.80;1.50;;;24.40;59.40;;;;;;220642;1268;22615;-54
2022/09/01 10:22:19;;;;;;;2.90;1.50;;;24.40;58.90;;;;;;220234;1271;23949;-52
2022/09/01 10:27:27;;;;;;;1.50;1.10;;;24.40;59.60;;;;;;220323;1269;25304;-54
2022/09/01 10:32:42;;;;;;;3.60;1.30;;;24.40;59.30;;;;;;220609;1268;24266;-54
2022/09/01 10:37:56;;;;;;;3.50;1.50;;;24.50;58.80;;;;;;220373;1271;22577;-54
2022/09/01 10:43:32;;;;;;;7.20;1.60;;;24.60;58.70;;;;;;220122;1271;22544;-54
2022/09/01 10:48:41;;;;;;;1.80;1.20;;;24.60;58.80;;;;;;220128;1268;24296;-50
2022/09/01 10:53:59;;;;;;;4.40;1.30;;;24.60;58.80;;;;;;220717;1268;24212;-55
2022/09/01 10:59:09;;;;;;;2.20;1.30;;;24.70;58.80;;;;;;220036;1268;25309;-54
2022/09/01 11:04:38;;;;;;;2.20;1.30;;;24.70;58.60;;;;;;220173;1268;22545;-53
2022/09/01 11:10:05;;;;;;;1.80;1.20;;;24.80;58.60;;;;;;220188;1270;25379;-52
2022/09/01 11:15:14;;;;;;;2.70;1.50;;;24.80;58.50;;;;;;220331;1268;22529;-52
2022/09/01 11:20:36;;;;;;;2.00;1.30;;;24.90;58.40;;;;;;220847;1268;26383;-57
2022/09/01 11:25:40;;;;;;;1.80;1.10;;;24.90;58.30;;;;;;220860;1268;22564;-56
2022/09/01 11:30:59;;;;;;;2.30;1.40;;;24.90;58.60;;;;;;220158;1268;25600;-53
2022/09/01 11:36:46;;;;;;;2.10;1.30;;;25.00;58.20;;;;;;220452;1268;22637;-55
2022/09/01 11:42:34;;;;;;;2.60;1.30;;;25.00;58.10;;;;;;220164;1268;22541;-53
2022/09/01 11:47:45;;;;;;;1.90;1.30;;;25.10;58.00;;;;;;220188;1268;22541;-54
2022/09/01 11:52:59;;;;;;;2.20;1.30;;;25.10;57.90;;;;;;220054;1271;22540;-54
2022/09/01 11:58:33;;;;;;;2.00;1.30;;;25.10;58.00;;;;;;220196;1268;24334;-54
2022/09/01 12:03:37;;;;;;;1.80;1.30;;;25.10;57.80;;;;;;220002;1271;25362;-54
2022/09/01 12:08:50;;;;;;;2.10;1.30;;;25.10;58.10;;;;;;219990;1268;25288;-53
2022/09/01 12:14:03;;;;;;;1.60;1.00;;;25.20;58.20;;;;;;219893;1271;22615;-51
2022/09/01 12:19:25;;;;;;;1.90;1.20;;;25.20;57.80;;;;;;220109;1271;22639;-54
2022/09/01 12:24:51;;;;;;;3.00;1.10;;;25.10;58.30;;;;;;220271;1271;23662;-54
2022/09/01 12:29:55;;;;;;;2.50;1.20;;;25.10;58.00;;;;;;220223;1268;22880;-55
2022/09/01 12:35:04;;;;;;;2.40;1.50;;;25.10;58.00;;;;;;220067;1268;24225;-51
2022/09/01 12:40:31;;;;;;;1.90;1.20;;;25.20;58.10;;;;;;220335;1271;23914;-54
2022/09/01 12:45:42;;;;;;;2.00;1.20;;;25.20;58.30;;;;;;220248;1268;24225;-54
2022/09/01 12:50:54;;;;;;;2.20;1.40;;;25.20;58.00;;;;;;220398;1267;24366;-53
2022/09/01 12:56:33;;;;;;;3.50;1.30;;;25.30;58.10;;;;;;220055;1268;22538;-56
2022/09/01 13:01:39;;;;;;;2.00;1.30;;;25.30;58.00;;;;;;220097;1267;25297;-56
2022/09/01 13:06:42;;;;;;;1.50;1.00;;;25.30;57.80;;;;;;220120;1267;22556;-55
2022/09/01 13:11:47;;;;;;;1.70;1.20;;;25.30;58.00;;;;;;220035;1268;22546;-54
2022/09/01 13:17:13;;;;;;;2.00;1.30;;;25.40;58.00;;;;;;220295;1268;22548;-53
2022/09/01 13:22:17;;;;;;;2.20;1.00;;;25.40;58.00;;;;;;220222;1267;23911;-54
2022/09/01 13:27:21;;;;;;;1.90;1.10;;;25.30;58.20;;;;;;220169;1267;22554;-53
2022/09/01 13:32:26;;;;;;;1.60;1.10;;;25.30;58.00;;;;;;220026;1268;24334;-55
2022/09/01 13:37:29;;;;;;;1.80;1.00;;;25.30;57.90;;;;;;220000;1271;24686;-54
2022/09/01 13:42:33;;;;;;;2.00;1.30;;;25.40;57.90;;;;;;219912;1267;25237;-54
2022/09/01 13:47:44;;;;;;;1.50;1.00;;;25.40;57.80;;;;;;220186;1267;25417;-49
2022/09/01 13:53:08;;;;;;;1.60;1.10;;;25.40;57.60;;;;;;220238;1267;25391;-52
2022/09/01 13:58:13;;;;;;;2.10;1.40;;;25.40;58.10;;;;;;220432;1268;22550;-53
2022/09/01 14:03:22;;;;;;;2.70;1.30;;;25.30;57.50;;;;;;220357;1267;22541;-53
2022/09/01 14:08:25;;;;;;;2.70;1.40;;;25.40;57.70;;;;;;220143;1269;22588;-57
2022/09/01 14:13:30;;;;;;;1.70;1.00;;;25.30;57.70;;;;;;220544;1267;22547;-60
2022/09/01 14:18:35;;;;;;;2.70;1.30;;;25.30;57.80;;;;;;220072;1267;22577;-54
2022/09/01 14:23:40;;;;;;;2.70;1.30;;;25.30;57.90;;;;;;220032;1267;24222;-51
2022/09/01 14:28:47;;;;;;;1.80;0.90;;;25.30;58.20;;;;;;224276;1270;22646;-56
2022/09/01 14:33:57;;;;;;;2.80;1.10;;;25.30;58.20;;;;;;220084;1268;22604;-55
2022/09/01 14:39:05;;;;;;;3.90;1.40;;;25.30;58.20;;;;;;220551;1267;22540;-55
2022/09/01 14:44:24;;;;;;;1.70;1.20;;;25.30;58.10;;;;;;220435;1267;22529;-52
2022/09/01 14:49:35;;;;;;;2.90;1.20;;;25.20;58.00;;;;;;220598;1267;22580;-56
2022/09/01 14:54:43;;;;;;;3.10;1.20;;;25.20;58.00;;;;;;220229;1267;22534;-56
2022/09/01 14:59:49;;;;;;;2.10;1.30;;;25.20;57.80;;;;;;220346;1267;22664;-56
2022/09/01 15:04:55;;;;;;;3.80;1.10;;;25.20;58.00;;;;;;220091;1267;22574;-55
2022/09/01 15:09:59;;;;;;;1.50;1.00;;;25.10;57.80;;;;;;220145;1267;24195;-57
2022/09/01 15:15:08;;;;;;;1.70;1.10;;;25.10;57.60;;;;;;220066;1267;24274;-54
2022/09/01 15:25:34;;;;;;;2.00;1.10;;;25.00;57.30;;;;;;219773;1270;22609;-56
2022/09/01 15:30:39;;;;;;;2.50;1.20;;;25.10;57.00;;;;;;219979;1270;24782;-54
2022/09/01 15:35:45;;;;;;;2.30;1.20;;;25.00;56.70;;;;;;220355;1267;25367;-55
2022/09/01 15:40:49;;;;;;;1.60;1.10;;;25.00;57.20;;;;;;220221;1267;22556;-55
2022/09/01 15:46:03;;;;;;;2.40;1.00;;;25.00;56.70;;;;;;220118;1270;22573;-55
2022/09/01 15:51:25;;;;;;;2.40;1.10;;;25.00;57.00;;;;;;220284;1267;25243;-52
2022/09/01 15:56:30;;;;;;;2.20;1.10;;;25.00;57.10;;;;;;220105;1270;22660;-55
2022/09/01 16:01:42;;;;;;;2.00;1.20;;;24.90;57.20;;;;;;220023;1266;25362;-53
2022/09/01 16:06:48;;;;;;;1.50;1.00;;;24.90;57.60;;;;;;220042;1267;25535;-52
2022/09/01 16:11:53;;;;;;;1.60;1.00;;;24.90;57.70;;;;;;220381;1268;22548;-54
2022/09/01 16:17:18;;;;;;;4.00;1.10;;;24.90;57.20;;;;;;220799;1267;22583;-54
2022/09/01 16:22:33;;;;;;;1.70;0.90;;;24.90;57.40;;;;;;220586;1267;22531;-56
2022/09/01 16:27:44;;;;;;;1.60;1.20;;;24.90;57.40;;;;;;220419;1267;22536;-55
2022/09/01 16:32:48;;;;;;;2.80;1.00;;;24.80;57.20;;;;;;220444;1268;22553;-55
2022/09/01 16:38:10;;;;;;;1.60;1.00;;;24.90;57.40;;;;;;220410;1267;22550;-53
2022/09/01 16:43:23;;;;;;;2.00;1.10;;;24.80;57.30;;;;;;220532;1267;25314;-54
2022/09/01 16:48:48;;;;;;;2.20;1.10;;;24.80;57.30;;;;;;220362;1267;24220;-54
2022/09/01 16:54:12;;;;;;;2.30;0.90;;;24.80;56.80;;;;;;219724;1267;1545249;-53
2022/09/01 16:59:29;;;;;;;2.00;1.20;;;24.80;56.70;;;;;;220347;1267;24347;-58
2022/09/01 17:04:39;;;;;;;1.60;0.90;;;24.80;56.60;;;;;;220550;1267;24267;-54
2022/09/01 17:09:51;;;;;;;1.70;1.10;;;24.80;57.00;;;;;;220226;1268;22707;-55
2022/09/01 17:15:00;;;;;;;1.90;1.00;;;24.70;57.00;;;;;;220136;1267;23026;-55
2022/09/01 17:20:08;;;;;;;1.50;1.00;;;24.80;57.10;;;;;;220396;1267;24256;-53
2022/09/01 17:25:27;;;;;;;1.40;0.90;;;24.70;57.40;;;;;;220024;1267;25262;-55
2022/09/01 17:30:35;;;;;;;1.90;1.20;;;24.70;57.10;;;;;;220239;1267;24225;-54
2022/09/01 17:35:54;;;;;;;1.80;1.00;;;24.70;57.10;;;;;;220236;1267;25432;-55
2022/09/01 17:41:21;;;;;;;1.50;1.00;;;24.70;57.10;;;;;;220061;1267;22522;-57
2022/09/01 17:46:39;;;;;;;1.40;0.90;;;24.70;57.10;;;;;;220093;1267;23063;-56
2022/09/01 17:52:27;;;;;;;2.40;1.10;;;24.70;57.10;;;;;;220297;1267;24900;-55
2022/09/01 17:57:43;;;;;;;1.40;1.00;;;24.60;57.20;;;;;;220017;1270;22569;-57
2022/09/01 18:03:13;;;;;;;3.10;1.20;;;24.60;57.10;;;;;;220425;1267;22670;-54
2022/09/01 18:08:27;;;;;;;1.90;1.10;;;24.60;57.20;;;;;;220234;1267;24884;-54
2022/09/01 18:13:43;;;;;;;1.60;1.00;;;24.60;57.20;;;;;;220405;1267;26459;-55
2022/09/01 18:19:06;;;;;;;1.80;1.00;;;24.60;57.30;;;;;;220232;1267;22580;-55
2022/09/01 18:24:30;;;;;;;2.30;1.00;;;24.60;57.30;;;;;;220015;1268;26534;-55
2022/09/01 18:29:35;;;;;;;4.10;1.10;;;24.50;57.50;;;;;;220467;1267;22647;-53
2022/09/01 18:35:13;;;;;;;2.50;1.10;;;24.50;57.20;;;;;;220258;1267;22577;-54
2022/09/01 18:40:31;;;;;;;1.40;0.90;;;24.50;57.40;;;;;;220199;1267;22551;-54
2022/09/01 18:45:53;;;;;;;1.70;1.10;;;24.50;57.30;;;;;;220629;1268;22600;-56
2022/09/01 18:51:10;;;;;;;2.20;1.00;;;24.50;57.50;;;;;;220777;1267;22541;-55
2022/09/01 18:56:41;;;;;;;1.50;1.00;;;24.50;57.50;;;;;;220391;1267;24425;-54
2022/09/01 19:01:58;;;;;;;1.60;1.00;;;24.50;57.60;;;;;;220607;1267;22547;-55
2022/09/01 19:07:20;;;;;;;2.20;1.10;;;24.40;57.50;;;;;;220571;1269;22766;-55
2022/09/01 19:12:50;;;;;;;1.80;1.30;;;24.40;57.50;;;;;;220613;1267;25300;-54
2022/09/01 19:18:02;;;;;;;2.10;1.00;;;24.40;57.60;;;;;;220353;1267;22545;-55
2022/09/01 19:23:32;;;;;;;2.00;1.20;;;24.40;58.00;;;;;;220246;1267;26795;-53
2022/09/01 19:28:44;;;;;;;2.00;1.20;;;24.40;57.70;;;;;;220647;1267;25614;-55
2022/09/01 19:33:57;;;;;;;2.30;1.10;;;24.30;57.70;;;;;;220404;1267;24214;-56
2022/09/01 19:39:05;;;;;;;2.10;1.10;;;24.40;57.80;;;;;;220123;1267;22684;-56
2022/09/01 19:44:35;;;;;;;2.20;1.30;;;24.30;57.80;;;;;;220270;1267;22528;-54
2022/09/01 19:49:58;;;;;;;2.10;1.20;;;24.30;57.80;;;;;;220109;1270;22657;-58
2022/09/01 19:55:13;;;;;;;2.00;1.20;;;24.30;57.90;;;;;;220132;1270;24222;-54
2022/09/01 20:00:23;;;;;;;2.00;1.40;;;24.30;57.80;;;;;;220260;1270;25216;-55
2022/09/01 20:05:47;;;;;;;2.00;1.20;;;24.30;57.80;;;;;;220279;1267;22613;-56
2022/09/01 20:11:02;;;;;;;3.40;1.40;;;24.20;57.40;;;;;;220130;1267;25279;-53
2022/09/01 20:16:23;;;;;;;1.90;1.10;;;24.20;57.80;;;;;;220463;1268;22662;-58
2022/09/01 20:21:38;;;;;;;3.30;1.30;;;24.20;57.80;;;;;;219954;1270;25427;-53
2022/09/01 20:26:55;;;;;;;2.20;1.20;;;24.20;57.40;;;;;;219888;1269;26163;-54
2022/09/01 20:32:02;;;;;;;2.50;1.20;;;24.20;58.10;;;;;;220069;1267;24216;-58
2022/09/01 20:37:19;;;;;;;2.00;1.00;;;24.20;57.80;;;;;;220092;1270;25658;-53
2022/09/01 20:42:47;;;;;;;2.10;1.20;;;24.10;57.80;;;;;;220137;1268;22539;-54
2022/09/01 20:47:56;;;;;;;3.00;1.20;;;24.10;57.80;;;;;;220352;1267;24352;-54
2022/09/01 20:53:22;;;;;;;2.60;1.40;;;24.10;57.90;;;;;;220066;1267;24324;-53
2022/09/01 20:58:32;;;;;;;2.90;1.30;;;24.10;57.80;;;;;;220110;1267;23044;-56
2022/09/01 21:03:49;;;;;;;2.00;1.20;;;24.10;57.90;;;;;;220251;1267;22539;-54
2022/09/01 21:08:56;;;;;;;;;;;24.10;57.90;;;;;;220663;1267;22745;-56
2022/09/01 21:14:09;;;;;;;1.90;1.10;;;24.10;58.40;;;;;;220519;1267;22533;-54
2022/09/01 21:19:16;;;;;;;2.10;1.20;;;24.00;57.90;;;;;;220551;1267;25310;-54
2022/09/01 21:24:20;;;;;;;4.80;1.50;;;24.00;58.50;;;;;;220491;1267;25443;-55
2022/09/01 21:29:50;;;;;;;1.70;1.20;;;24.00;58.30;;;;;;220444;1266;24229;-55
2022/09/01 21:34:55;;;;;;;2.10;1.40;;;24.00;57.90;;;;;;220497;1267;22522;-54
2022/09/01 21:40:02;;;;;;;2.30;1.40;;;24.00;57.90;;;;;;220148;1267;24363;-54
2022/09/01 21:45:09;;;;;;;3.00;1.40;;;24.00;58.30;;;;;;220514;1267;22525;-53
2022/09/01 21:50:16;;;;;;;2.40;1.30;;;23.90;57.90;;;;;;220623;1267;22544;-55
2022/09/01 21:55:22;;;;;;;2.20;1.30;;;24.00;57.90;;;;;;220358;1267;24223;-54
2022/09/01 22:00:29;;;;;;;2.00;1.20;;;23.90;58.00;;;;;;220535;1267;25435;-55
2022/09/01 22:05:34;;;;;;;2.00;1.30;;;23.90;58.30;;;;;;220322;1267;22517;-53
2022/09/01 22:10:45;;;;;;;2.80;1.50;;;23.90;58.00;;;;;;220154;1267;22539;-58
2022/09/01 22:15:51;;;;;;;1.90;1.20;;;23.90;58.10;;;;;;221039;1267;25415;-55
2022/09/01 22:21:06;;;;;;;2.20;1.30;;;23.90;58.00;;;;;;220967;1267;24203;-56
2022/09/01 22:26:18;;;;;;;1.60;1.00;;;23.90;58.00;;;;;;220432;1267;24793;-56
2022/09/01 22:31:23;;;;;;;2.10;1.20;;;23.90;58.00;;;;;;220929;1267;25291;-54
2022/09/01 22:36:34;;;;;;;2.10;1.20;;;23.90;58.40;;;;;;220873;1267;22690;-55
2022/09/01 22:41:39;;;;;;;;;;;23.90;58.10;;;;;;220447;1267;22506;-50
2022/09/01 22:46:43;;;;;;;2.00;1.20;;;23.80;58.00;;;;;;220354;1267;22842;-53
2022/09/01 22:51:47;;;;;;;1.90;1.20;;;23.90;58.10;;;;;;220254;1267;22528;-53
2022/09/01 22:56:51;;;;;;;2.50;1.30;;;23.90;58.10;;;;;;220253;1267;22624;-52
2022/09/01 23:02:00;;;;;;;1.90;1.10;;;23.80;58.00;;;;;;220603;1267;22518;-54
2022/09/01 23:07:05;;;;;;;2.40;1.30;;;23.80;58.00;;;;;;220864;1267;24262;-57
2022/09/01 23:12:09;;;;;;;2.20;1.30;;;23.80;58.00;;;;;;220474;1267;22630;-56
2022/09/01 23:17:15;;;;;;;2.20;1.20;;;23.80;58.10;;;;;;220439;1267;22528;-55
2022/09/01 23:22:19;;;;;;;2.00;1.10;;;23.80;58.00;;;;;;220576;1267;24343;-55
2022/09/01 23:27:22;;;;;;;2.10;1.30;;;23.80;58.00;;;;;;220425;1267;23921;-54
2022/09/01 23:32:26;;;;;;;2.50;1.30;;;23.80;58.40;;;;;;220731;1267;22525;-57
2022/09/01 23:37:30;;;;;;;1.50;1.00;;;23.80;58.00;;;;;;220527;1267;26493;-54
2022/09/01 23:42:34;;;;;;;1.70;1.10;;;23.80;58.60;;;;;;220944;1267;22531;-54
2022/09/01 23:47:39;;;;;;;2.00;1.40;;;23.80;58.10;;;;;;220368;1267;24289;-58
2022/09/01 23:52:42;;;;;;;3.60;1.30;;;23.70;58.60;;;;;;220358;1267;22535;-56
2022/09/01 23:57:46;;;;;;;2.10;1.20;;;23.70;58.00;;;;;;220405;1267;24237;-55
